sensor_id;sensor_type;location;lat;lon;timestamp;P1;P2;P0
55549;PMS7003;41397;49.972;18.944;2023-08-31T00:01:59;10;10;8
55549;PMS7003;41397;49.972;18.944;2023-08-31T00:05:00;12;12;8
55549;PMS7003;41397;49.972;18.944;2023-08-31T00:08:02;11;11;9
55549;PMS7003;41397;49.972;18.944;2023-08-31T00:11:03;8;8;8
55549;PMS7003;41397;49.972;18.944;2023-08-31T00:14:05;7;7;5
55549;PMS7003;41397;49.972;18.944;2023-08-31T00:17:06;10;9;8
55549;PMS7003;41397;49.972;18.944;2023-08-31T00:20:08;8;8;6
55549;PMS7003;41397;49.972;18.944;2023-08-31T00:23:13;9;9;6
55549;PMS7003;41397;49.972;18.944;2023-08-31T00:26:14;9;8;4
55549;PMS7003;41397;49.972;18.944;2023-08-31T00:29:16;9;9;7
55549;PMS7003;41397;49.972;18.944;2023-08-31T00:32:17;10;10;7
55549;PMS7003;41397;49.972;18.944;2023-08-31T00:35:23;8;8;7
55549;PMS7003;41397;49.972;18.944;2023-08-31T00:38:25;10;10;8
55549;PMS7003;41397;49.972;18.944;2023-08-31T00:41:26;7;7;4
55549;PMS7003;41397;49.972;18.944;2023-08-31T00:44:27;8;8;6
55549;PMS7003;41397;49.972;18.944;2023-08-31T00:47:29;6;6;5
55549;PMS7003;41397;49.972;18.944;2023-08-31T00:50:30;4;4;3
55549;PMS7003;41397;49.972;18.944;2023-08-31T00:53:32;11;11;8
55549;PMS7003;41397;49.972;18.944;2023-08-31T00:56:35;9;9;6
55549;PMS7003;41397;49.972;18.944;2023-08-31T00:59:37;7;7;6
55549;PMS7003;41397;49.972;18.944;2023-08-31T01:05:57;8;8;6
55549;PMS7003;41397;49.972;18.944;2023-08-31T01:09:13;5;5;3
55549;PMS7003;41397;49.972;18.944;2023-08-31T01:12:40;7;7;6
55549;PMS7003;41397;49.972;18.944;2023-08-31T01:15:46;6;6;6
55549;PMS7003;41397;49.972;18.944;2023-08-31T01:18:54;8;8;6
55549;PMS7003;41397;49.972;18.944;2023-08-31T01:21:57;7;7;5
55549;PMS7003;41397;49.972;18.944;2023-08-31T01:25:01;6;6;5
55549;PMS7003;41397;49.972;18.944;2023-08-31T01:28:05;7;7;5
55549;PMS7003;41397;49.972;18.944;2023-08-31T01:31:12;8;8;6
55549;PMS7003;41397;49.972;18.944;2023-08-31T01:34:18;9;9;7
55549;PMS7003;41397;49.972;18.944;2023-08-31T01:37:25;6;6;6
55549;PMS7003;41397;49.972;18.944;2023-08-31T01:43:46;8;8;6
55549;PMS7003;41397;49.972;18.944;2023-08-31T01:46:52;10;10;4
55549;PMS7003;41397;49.972;18.944;2023-08-31T01:49:57;8;8;7
55549;PMS7003;41397;49.972;18.944;2023-08-31T01:53:00;7;7;5
55549;PMS7003;41397;49.972;18.944;2023-08-31T01:56:01;7;7;5
55549;PMS7003;41397;49.972;18.944;2023-08-31T01:59:03;9;9;8
55549;PMS7003;41397;49.972;18.944;2023-08-31T02:02:05;7;7;5
55549;PMS7003;41397;49.972;18.944;2023-08-31T02:05:07;7;7;5
55549;PMS7003;41397;49.972;18.944;2023-08-31T02:08:08;8;8;6
55549;PMS7003;41397;49.972;18.944;2023-08-31T02:11:09;7;7;7
55549;PMS7003;41397;49.972;18.944;2023-08-31T02:14:13;7;7;4
55549;PMS7003;41397;49.972;18.944;2023-08-31T02:17:14;7;7;5
55549;PMS7003;41397;49.972;18.944;2023-08-31T02:20:16;7;7;6
55549;PMS7003;41397;49.972;18.944;2023-08-31T02:23:17;7;7;6
55549;PMS7003;41397;49.972;18.944;2023-08-31T02:26:21;8;8;7
55549;PMS7003;41397;49.972;18.944;2023-08-31T02:29:23;9;9;7
55549;PMS7003;41397;49.972;18.944;2023-08-31T02:32:24;9;9;7
55549;PMS7003;41397;49.972;18.944;2023-08-31T02:35:25;10;10;8
55549;PMS7003;41397;49.972;18.944;2023-08-31T02:38:29;9;9;7
55549;PMS7003;41397;49.972;18.944;2023-08-31T02:41:30;9;9;8
55549;PMS7003;41397;49.972;18.944;2023-08-31T02:44:31;11;11;9
55549;PMS7003;41397;49.972;18.944;2023-08-31T02:47:33;6;6;5
55549;PMS7003;41397;49.972;18.944;2023-08-31T02:50:37;11;11;9
55549;PMS7003;41397;49.972;18.944;2023-08-31T02:53:39;9;9;7
55549;PMS7003;41397;49.972;18.944;2023-08-31T02:56:40;8;8;8
55549;PMS7003;41397;49.972;18.944;2023-08-31T02:59:41;10;10;7
55549;PMS7003;41397;49.972;18.944;2023-08-31T03:02:44;6;6;3
55549;PMS7003;41397;49.972;18.944;2023-08-31T03:05:46;9;9;7
55549;PMS7003;41397;49.972;18.944;2023-08-31T03:08:47;8;8;8
55549;PMS7003;41397;49.972;18.944;2023-08-31T03:11:48;7;7;6
55549;PMS7003;41397;49.972;18.944;2023-08-31T03:14:52;9;9;7
55549;PMS7003;41397;49.972;18.944;2023-08-31T03:17:53;11;11;8
55549;PMS7003;41397;49.972;18.944;2023-08-31T03:20:55;5;5;4
55549;PMS7003;41397;49.972;18.944;2023-08-31T03:23:57;7;7;5
55549;PMS7003;41397;49.972;18.944;2023-08-31T03:27:00;9;9;8
55549;PMS7003;41397;49.972;18.944;2023-08-31T03:30:01;6;6;5
55549;PMS7003;41397;49.972;18.944;2023-08-31T03:33:04;12;12;9
55549;PMS7003;41397;49.972;18.944;2023-08-31T03:36:06;8;8;7
55549;PMS7003;41397;49.972;18.944;2023-08-31T03:39:08;8;8;7
55549;PMS7003;41397;49.972;18.944;2023-08-31T03:42:10;6;6;5
55549;PMS7003;41397;49.972;18.944;2023-08-31T03:45:11;9;9;8
55549;PMS7003;41397;49.972;18.944;2023-08-31T03:48:12;13;13;10
55549;PMS7003;41397;49.972;18.944;2023-08-31T03:51:16;10;10;9
55549;PMS7003;41397;49.972;18.944;2023-08-31T03:54:17;9;9;7
55549;PMS7003;41397;49.972;18.944;2023-08-31T03:57:18;6;6;4
55549;PMS7003;41397;49.972;18.944;2023-08-31T04:00:20;6;6;5
55549;PMS7003;41397;49.972;18.944;2023-08-31T04:03:24;6;6;4
55549;PMS7003;41397;49.972;18.944;2023-08-31T04:06:26;9;9;7
55549;PMS7003;41397;49.972;18.944;2023-08-31T04:09:29;9;9;7
55549;PMS7003;41397;49.972;18.944;2023-08-31T04:12:30;8;8;7
55549;PMS7003;41397;49.972;18.944;2023-08-31T04:15:32;6;6;5
55549;PMS7003;41397;49.972;18.944;2023-08-31T04:18:34;7;7;4
55549;PMS7003;41397;49.972;18.944;2023-08-31T04:21:36;4;4;4
55549;PMS7003;41397;49.972;18.944;2023-08-31T04:24:39;8;8;7
55549;PMS7003;41397;49.972;18.944;2023-08-31T04:27:40;9;9;7
55549;PMS7003;41397;49.972;18.944;2023-08-31T04:30:41;8;8;7
55549;PMS7003;41397;49.972;18.944;2023-08-31T04:33:42;8;8;7
55549;PMS7003;41397;49.972;18.944;2023-08-31T04:36:43;11;11;8
55549;PMS7003;41397;49.972;18.944;2023-08-31T04:39:47;8;8;5
55549;PMS7003;41397;49.972;18.944;2023-08-31T04:42:48;8;8;7
55549;PMS7003;41397;49.972;18.944;2023-08-31T04:48:36;7;7;6
55549;PMS7003;41397;49.972;18.944;2023-08-31T04:51:37;6;6;4
55549;PMS7003;41397;49.972;18.944;2023-08-31T04:54:42;4;4;3
55549;PMS7003;41397;49.972;18.944;2023-08-31T04:57:43;5;5;3
55549;PMS7003;41397;49.972;18.944;2023-08-31T05:00:44;8;8;6
55549;PMS7003;41397;49.972;18.944;2023-08-31T05:03:48;5;5;4
55549;PMS7003;41397;49.972;18.944;2023-08-31T05:06:49;5;5;4
55549;PMS7003;41397;49.972;18.944;2023-08-31T05:09:51;4;4;2
55549;PMS7003;41397;49.972;18.944;2023-08-31T05:12:52;4;4;3
55549;PMS7003;41397;49.972;18.944;2023-08-31T05:15:54;3;3;3
55549;PMS7003;41397;49.972;18.944;2023-08-31T05:18:55;6;4;2
55549;PMS7003;41397;49.972;18.944;2023-08-31T05:21:59;7;7;6
55549;PMS7003;41397;49.972;18.944;2023-08-31T05:25:00;4;4;3
55549;PMS7003;41397;49.972;18.944;2023-08-31T05:28:01;8;8;5
55549;PMS7003;41397;49.972;18.944;2023-08-31T05:31:03;6;6;5
55549;PMS7003;41397;49.972;18.944;2023-08-31T05:34:09;10;10;7
55549;PMS7003;41397;49.972;18.944;2023-08-31T05:37:10;2;2;2
55549;PMS7003;41397;49.972;18.944;2023-08-31T05:40:12;2;2;2
55549;PMS7003;41397;49.972;18.944;2023-08-31T05:43:14;9;9;6
55549;PMS7003;41397;49.972;18.944;2023-08-31T05:46:16;7;7;6
55549;PMS7003;41397;49.972;18.944;2023-08-31T05:49:17;4;4;3
55549;PMS7003;41397;49.972;18.944;2023-08-31T05:52:19;2;2;2
55549;PMS7003;41397;49.972;18.944;2023-08-31T05:55:20;2;2;2
55549;PMS7003;41397;49.972;18.944;2023-08-31T05:58:22;4;4;3
55549;PMS7003;41397;49.972;18.944;2023-08-31T06:01:24;4;4;3
55549;PMS7003;41397;49.972;18.944;2023-08-31T06:04:25;3;3;2
55549;PMS7003;41397;49.972;18.944;2023-08-31T06:07:26;7;7;5
55549;PMS7003;41397;49.972;18.944;2023-08-31T06:10:30;4;4;2
55549;PMS7003;41397;49.972;18.944;2023-08-31T06:13:31;1;1;1
55549;PMS7003;41397;49.972;18.944;2023-08-31T06:16:33;3;3;2
55549;PMS7003;41397;49.972;18.944;2023-08-31T06:19:34;0;0;0
55549;PMS7003;41397;49.972;18.944;2023-08-31T06:22:38;1;1;1
55549;PMS7003;41397;49.972;18.944;2023-08-31T06:25:39;2;2;1
55549;PMS7003;41397;49.972;18.944;2023-08-31T06:28:41;1;1;1
55549;PMS7003;41397;49.972;18.944;2023-08-31T06:31:42;1;1;1
55549;PMS7003;41397;49.972;18.944;2023-08-31T06:34:46;0;0;0
55549;PMS7003;41397;49.972;18.944;2023-08-31T06:37:47;4;4;3
55549;PMS7003;41397;49.972;18.944;2023-08-31T06:40:51;0;0;0
55549;PMS7003;41397;49.972;18.944;2023-08-31T06:43:58;1;1;1
55549;PMS7003;41397;49.972;18.944;2023-08-31T06:47:00;0;0;0
55549;PMS7003;41397;49.972;18.944;2023-08-31T06:50:01;1;1;1
55549;PMS7003;41397;49.972;18.944;2023-08-31T06:53:04;0;0;0
55549;PMS7003;41397;49.972;18.944;2023-08-31T06:56:05;3;3;2
55549;PMS7003;41397;49.972;18.944;2023-08-31T06:59:06;0;0;0
55549;PMS7003;41397;49.972;18.944;2023-08-31T07:02:07;2;2;1
55549;PMS7003;41397;49.972;18.944;2023-08-31T07:05:10;0;0;0
55549;PMS7003;41397;49.972;18.944;2023-08-31T07:08:12;0;0;0
55549;PMS7003;41397;49.972;18.944;2023-08-31T07:11:14;1;1;0
55549;PMS7003;41397;49.972;18.944;2023-08-31T07:14:16;0;0;0
55549;PMS7003;41397;49.972;18.944;2023-08-31T07:17:18;1;1;1
55549;PMS7003;41397;49.972;18.944;2023-08-31T07:20:22;1;1;1
55549;PMS7003;41397;49.972;18.944;2023-08-31T07:23:23;0;0;0
55549;PMS7003;41397;49.972;18.944;2023-08-31T07:26:25;1;1;1
55549;PMS7003;41397;49.972;18.944;2023-08-31T07:29:26;2;2;1
55549;PMS7003;41397;49.972;18.944;2023-08-31T07:32:27;6;6;5
55549;PMS7003;41397;49.972;18.944;2023-08-31T07:35:29;2;2;1
55549;PMS7003;41397;49.972;18.944;2023-08-31T07:38:31;0;0;0
55549;PMS7003;41397;49.972;18.944;2023-08-31T07:41:33;0;0;0
55549;PMS7003;41397;49.972;18.944;2023-08-31T07:44:34;0;0;0
55549;PMS7003;41397;49.972;18.944;2023-08-31T07:47:35;0;0;0
55549;PMS7003;41397;49.972;18.944;2023-08-31T07:50:37;0;0;0
55549;PMS7003;41397;49.972;18.944;2023-08-31T07:53:40;4;4;3
55549;PMS7003;41397;49.972;18.944;2023-08-31T07:56:41;2;2;1
55549;PMS7003;41397;49.972;18.944;2023-08-31T07:59:43;0;0;0
55549;PMS7003;41397;49.972;18.944;2023-08-31T08:02:45;1;1;0
55549;PMS7003;41397;49.972;18.944;2023-08-31T08:05:47;0;0;0
55549;PMS7003;41397;49.972;18.944;2023-08-31T08:08:48;1;1;1
55549;PMS7003;41397;49.972;18.944;2023-08-31T08:11:49;1;1;1
55549;PMS7003;41397;49.972;18.944;2023-08-31T08:14:51;2;2;1
55549;PMS7003;41397;49.972;18.944;2023-08-31T08:17:52;1;1;0
55549;PMS7003;41397;49.972;18.944;2023-08-31T08:20:55;1;1;1
55549;PMS7003;41397;49.972;18.944;2023-08-31T08:23:56;0;0;0
55549;PMS7003;41397;49.972;18.944;2023-08-31T08:26:57;1;1;1
55549;PMS7003;41397;49.972;18.944;2023-08-31T08:29:58;2;2;1
55549;PMS7003;41397;49.972;18.944;2023-08-31T08:33:00;0;0;0
55549;PMS7003;41397;49.972;18.944;2023-08-31T08:36:04;2;2;2
55549;PMS7003;41397;49.972;18.944;2023-08-31T08:39:05;0;0;0
55549;PMS7003;41397;49.972;18.944;2023-08-31T08:42:06;0;0;0
55549;PMS7003;41397;49.972;18.944;2023-08-31T08:48:17;1;1;0
55549;PMS7003;41397;49.972;18.944;2023-08-31T08:51:19;0;0;0
55549;PMS7003;41397;49.972;18.944;2023-08-31T08:54:22;2;2;2
55549;PMS7003;41397;49.972;18.944;2023-08-31T08:57:23;3;3;2
55549;PMS7003;41397;49.972;18.944;2023-08-31T09:00:25;4;4;3
55549;PMS7003;41397;49.972;18.944;2023-08-31T09:03:28;2;2;2
55549;PMS7003;41397;49.972;18.944;2023-08-31T09:06:29;2;2;1
55549;PMS7003;41397;49.972;18.944;2023-08-31T09:09:31;3;3;2
55549;PMS7003;41397;49.972;18.944;2023-08-31T09:12:35;5;5;5
55549;PMS7003;41397;49.972;18.944;2023-08-31T09:15:40;7;7;6
55549;PMS7003;41397;49.972;18.944;2023-08-31T09:18:45;3;3;3
55549;PMS7003;41397;49.972;18.944;2023-08-31T09:21:47;1;1;1
55549;PMS7003;41397;49.972;18.944;2023-08-31T09:24:50;2;2;2
55549;PMS7003;41397;49.972;18.944;2023-08-31T09:27:51;5;5;4
55549;PMS7003;41397;49.972;18.944;2023-08-31T09:30:53;3;3;2
55549;PMS7003;41397;49.972;18.944;2023-08-31T09:34:05;2;2;1
55549;PMS7003;41397;49.972;18.944;2023-08-31T09:37:06;3;3;3
55549;PMS7003;41397;49.972;18.944;2023-08-31T09:40:10;1;1;1
55549;PMS7003;41397;49.972;18.944;2023-08-31T09:43:19;2;2;1
55549;PMS7003;41397;49.972;18.944;2023-08-31T09:46:26;3;3;2
55549;PMS7003;41397;49.972;18.944;2023-08-31T09:49:27;5;5;4
55549;PMS7003;41397;49.972;18.944;2023-08-31T09:52:29;6;6;5
55549;PMS7003;41397;49.972;18.944;2023-08-31T09:55:32;2;2;2
55549;PMS7003;41397;49.972;18.944;2023-08-31T09:58:33;3;3;2
55549;PMS7003;41397;49.972;18.944;2023-08-31T10:01:35;5;5;3
55549;PMS7003;41397;49.972;18.944;2023-08-31T10:04:37;5;5;5
55549;PMS7003;41397;49.972;18.944;2023-08-31T10:07:39;5;5;3
55549;PMS7003;41397;49.972;18.944;2023-08-31T10:10:41;8;8;8
55549;PMS7003;41397;49.972;18.944;2023-08-31T10:13:43;6;6;6
55549;PMS7003;41397;49.972;18.944;2023-08-31T10:16:46;8;8;8
55549;PMS7003;41397;49.972;18.944;2023-08-31T10:19:55;4;4;3
55549;PMS7003;41397;49.972;18.944;2023-08-31T10:22:58;5;5;4
55549;PMS7003;41397;49.972;18.944;2023-08-31T10:26:04;4;4;4
55549;PMS7003;41397;49.972;18.944;2023-08-31T10:29:07;7;7;6
55549;PMS7003;41397;49.972;18.944;2023-08-31T10:32:20;7;7;6
55549;PMS7003;41397;49.972;18.944;2023-08-31T10:35:23;5;5;4
55549;PMS7003;41397;49.972;18.944;2023-08-31T10:38:34;9;9;8
55549;PMS7003;41397;49.972;18.944;2023-08-31T10:41:35;8;8;6
55549;PMS7003;41397;49.972;18.944;2023-08-31T10:44:36;7;7;7
55549;PMS7003;41397;49.972;18.944;2023-08-31T10:47:39;8;8;5
55549;PMS7003;41397;49.972;18.944;2023-08-31T10:50:42;8;8;8
55549;PMS7003;41397;49.972;18.944;2023-08-31T10:53:45;5;5;5
55549;PMS7003;41397;49.972;18.944;2023-08-31T10:59:56;7;7;6
55549;PMS7003;41397;49.972;18.944;2023-08-31T11:03:00;5;5;4
55549;PMS7003;41397;49.972;18.944;2023-08-31T11:06:09;7;7;6
55549;PMS7003;41397;49.972;18.944;2023-08-31T11:12:21;9;9;4
55549;PMS7003;41397;49.972;18.944;2023-08-31T11:15:25;4;4;4
55549;PMS7003;41397;49.972;18.944;2023-08-31T11:18:31;6;6;5
55549;PMS7003;41397;49.972;18.944;2023-08-31T11:21:32;5;5;5
55549;PMS7003;41397;49.972;18.944;2023-08-31T11:24:34;6;6;6
55549;PMS7003;41397;49.972;18.944;2023-08-31T11:27:37;6;6;5
55549;PMS7003;41397;49.972;18.944;2023-08-31T11:30:39;8;8;7
55549;PMS7003;41397;49.972;18.944;2023-08-31T11:33:52;6;6;6
55549;PMS7003;41397;49.972;18.944;2023-08-31T11:36:57;6;6;6
55549;PMS7003;41397;49.972;18.944;2023-08-31T11:39:58;3;3;3
55549;PMS7003;41397;49.972;18.944;2023-08-31T11:43:05;4;4;3
55549;PMS7003;41397;49.972;18.944;2023-08-31T11:46:09;2;2;2
55549;PMS7003;41397;49.972;18.944;2023-08-31T11:49:11;4;4;4
55549;PMS7003;41397;49.972;18.944;2023-08-31T11:52:13;2;2;2
55549;PMS7003;41397;49.972;18.944;2023-08-31T11:55:16;3;3;2
55549;PMS7003;41397;49.972;18.944;2023-08-31T11:58:25;5;5;3
55549;PMS7003;41397;49.972;18.944;2023-08-31T12:01:28;4;4;4
55549;PMS7003;41397;49.972;18.944;2023-08-31T12:04:30;4;4;4
55549;PMS7003;41397;49.972;18.944;2023-08-31T12:07:32;4;4;4
55549;PMS7003;41397;49.972;18.944;2023-08-31T12:10:42;6;6;5
55549;PMS7003;41397;49.972;18.944;2023-08-31T12:13:44;4;4;4
55549;PMS7003;41397;49.972;18.944;2023-08-31T12:16:46;7;7;6
55549;PMS7003;41397;49.972;18.944;2023-08-31T12:19:49;3;3;3
55549;PMS7003;41397;49.972;18.944;2023-08-31T12:22:51;3;3;3
55549;PMS7003;41397;49.972;18.944;2023-08-31T12:25:53;4;4;3
55549;PMS7003;41397;49.972;18.944;2023-08-31T12:28:55;4;4;2
55549;PMS7003;41397;49.972;18.944;2023-08-31T12:31:57;5;5;4
55549;PMS7003;41397;49.972;18.944;2023-08-31T12:34:59;4;4;4
55549;PMS7003;41397;49.972;18.944;2023-08-31T12:38:01;2;2;1
55549;PMS7003;41397;49.972;18.944;2023-08-31T12:41:05;8;8;8
55549;PMS7003;41397;49.972;18.944;2023-08-31T12:44:07;6;6;5
55549;PMS7003;41397;49.972;18.944;2023-08-31T12:47:09;6;6;4
55549;PMS7003;41397;49.972;18.944;2023-08-31T12:50:11;5;5;4
55549;PMS7003;41397;49.972;18.944;2023-08-31T12:53:13;5;5;5
55549;PMS7003;41397;49.972;18.944;2023-08-31T12:56:15;5;5;5
55549;PMS7003;41397;49.972;18.944;2023-08-31T12:59:24;5;5;4
55549;PMS7003;41397;49.972;18.944;2023-08-31T13:02:26;7;7;5
55549;PMS7003;41397;49.972;18.944;2023-08-31T13:05:29;4;4;4
55549;PMS7003;41397;49.972;18.944;2023-08-31T13:08:31;6;6;6
55549;PMS7003;41397;49.972;18.944;2023-08-31T13:11:33;6;6;5
55549;PMS7003;41397;49.972;18.944;2023-08-31T13:14:40;7;7;7
55549;PMS7003;41397;49.972;18.944;2023-08-31T13:17:45;9;9;7
55549;PMS7003;41397;49.972;18.944;2023-08-31T13:23:56;6;6;5
55549;PMS7003;41397;49.972;18.944;2023-08-31T13:26:57;8;8;5
55549;PMS7003;41397;49.972;18.944;2023-08-31T13:29:59;2;2;2
55549;PMS7003;41397;49.972;18.944;2023-08-31T13:33:01;2;2;2
55549;PMS7003;41397;49.972;18.944;2023-08-31T13:36:05;6;6;4
55549;PMS7003;41397;49.972;18.944;2023-08-31T13:39:07;6;6;6
55549;PMS7003;41397;49.972;18.944;2023-08-31T13:42:09;6;6;5
55549;PMS7003;41397;49.972;18.944;2023-08-31T13:45:11;7;7;7
55549;PMS7003;41397;49.972;18.944;2023-08-31T13:48:13;7;7;6
55549;PMS7003;41397;49.972;18.944;2023-08-31T13:51:15;6;6;6
55549;PMS7003;41397;49.972;18.944;2023-08-31T13:54:39;8;8;7
55549;PMS7003;41397;49.972;18.944;2023-08-31T13:57:41;7;7;6
55549;PMS7003;41397;49.972;18.944;2023-08-31T14:00:46;4;4;2
55549;PMS7003;41397;49.972;18.944;2023-08-31T14:03:48;4;4;4
55549;PMS7003;41397;49.972;18.944;2023-08-31T14:06:50;5;5;4
55549;PMS7003;41397;49.972;18.944;2023-08-31T14:09:59;7;7;5
55549;PMS7003;41397;49.972;18.944;2023-08-31T14:13:01;7;7;6
55549;PMS7003;41397;49.972;18.944;2023-08-31T14:16:02;6;6;6
55549;PMS7003;41397;49.972;18.944;2023-08-31T14:19:04;7;7;6
55549;PMS7003;41397;49.972;18.944;2023-08-31T14:22:06;7;7;6
55549;PMS7003;41397;49.972;18.944;2023-08-31T14:25:09;4;4;3
55549;PMS7003;41397;49.972;18.944;2023-08-31T14:28:19;5;5;5
55549;PMS7003;41397;49.972;18.944;2023-08-31T14:31:21;5;5;4
55549;PMS7003;41397;49.972;18.944;2023-08-31T14:34:23;7;7;5
55549;PMS7003;41397;49.972;18.944;2023-08-31T14:37:25;3;3;2
55549;PMS7003;41397;49.972;18.944;2023-08-31T14:40:27;9;9;7
55549;PMS7003;41397;49.972;18.944;2023-08-31T14:43:29;7;7;6
55549;PMS7003;41397;49.972;18.944;2023-08-31T14:46:30;5;5;4
55549;PMS7003;41397;49.972;18.944;2023-08-31T14:49:31;2;2;2
55549;PMS7003;41397;49.972;18.944;2023-08-31T14:52:35;6;6;5
55549;PMS7003;41397;49.972;18.944;2023-08-31T14:55:37;5;5;5
55549;PMS7003;41397;49.972;18.944;2023-08-31T14:58:38;3;3;3
55549;PMS7003;41397;49.972;18.944;2023-08-31T15:01:39;5;5;4
55549;PMS7003;41397;49.972;18.944;2023-08-31T15:04:43;3;3;1
55549;PMS7003;41397;49.972;18.944;2023-08-31T15:07:46;1;1;0
55549;PMS7003;41397;49.972;18.944;2023-08-31T15:10:47;3;3;3
55549;PMS7003;41397;49.972;18.944;2023-08-31T15:13:48;3;3;3
55549;PMS7003;41397;49.972;18.944;2023-08-31T15:16:51;3;3;3
55549;PMS7003;41397;49.972;18.944;2023-08-31T15:19:52;2;2;2
55549;PMS7003;41397;49.972;18.944;2023-08-31T15:22:54;1;1;0
55549;PMS7003;41397;49.972;18.944;2023-08-31T15:25:59;1;1;1
55549;PMS7003;41397;49.972;18.944;2023-08-31T15:29:01;4;4;3
55549;PMS7003;41397;49.972;18.944;2023-08-31T15:32:04;5;5;4
55549;PMS7003;41397;49.972;18.944;2023-08-31T15:35:08;1;1;1
55549;PMS7003;41397;49.972;18.944;2023-08-31T15:38:09;1;1;0
55549;PMS7003;41397;49.972;18.944;2023-08-31T15:41:12;1;1;1
55549;PMS7003;41397;49.972;18.944;2023-08-31T15:44:15;2;2;1
55549;PMS7003;41397;49.972;18.944;2023-08-31T15:47:16;3;3;2
55549;PMS7003;41397;49.972;18.944;2023-08-31T15:50:17;2;2;1
55549;PMS7003;41397;49.972;18.944;2023-08-31T15:53:18;1;1;1
55549;PMS7003;41397;49.972;18.944;2023-08-31T15:56:20;1;1;1
55549;PMS7003;41397;49.972;18.944;2023-08-31T15:59:21;1;1;1
55549;PMS7003;41397;49.972;18.944;2023-08-31T16:02:23;3;3;3
55549;PMS7003;41397;49.972;18.944;2023-08-31T16:05:24;1;1;1
55549;PMS7003;41397;49.972;18.944;2023-08-31T16:08:26;2;2;2
55549;PMS7003;41397;49.972;18.944;2023-08-31T16:11:28;2;2;1
55549;PMS7003;41397;49.972;18.944;2023-08-31T16:14:29;2;2;2
55549;PMS7003;41397;49.972;18.944;2023-08-31T16:17:31;1;1;1
55549;PMS7003;41397;49.972;18.944;2023-08-31T16:20:32;3;3;2
55549;PMS7003;41397;49.972;18.944;2023-08-31T16:23:36;0;0;0
55549;PMS7003;41397;49.972;18.944;2023-08-31T16:26:37;1;1;1
55549;PMS7003;41397;49.972;18.944;2023-08-31T16:29:39;3;3;1
55549;PMS7003;41397;49.972;18.944;2023-08-31T16:32:40;1;1;1
55549;PMS7003;41397;49.972;18.944;2023-08-31T16:35:41;2;2;2
55549;PMS7003;41397;49.972;18.944;2023-08-31T16:38:42;0;0;0
55549;PMS7003;41397;49.972;18.944;2023-08-31T16:41:45;2;2;1
55549;PMS7003;41397;49.972;18.944;2023-08-31T16:44:47;3;3;2
55549;PMS7003;41397;49.972;18.944;2023-08-31T16:47:48;1;1;0
55549;PMS7003;41397;49.972;18.944;2023-08-31T16:50:50;1;1;1
55549;PMS7003;41397;49.972;18.944;2023-08-31T16:53:53;1;1;1
55549;PMS7003;41397;49.972;18.944;2023-08-31T16:56:54;2;2;2
55549;PMS7003;41397;49.972;18.944;2023-08-31T16:59:56;3;3;2
55549;PMS7003;41397;49.972;18.944;2023-08-31T17:02:57;2;2;1
55549;PMS7003;41397;49.972;18.944;2023-08-31T17:06:01;3;3;3
55549;PMS7003;41397;49.972;18.944;2023-08-31T17:09:03;2;2;2
55549;PMS7003;41397;49.972;18.944;2023-08-31T17:12:07;4;4;3
55549;PMS7003;41397;49.972;18.944;2023-08-31T17:15:08;2;2;2
55549;PMS7003;41397;49.972;18.944;2023-08-31T17:18:10;6;6;4
55549;PMS7003;41397;49.972;18.944;2023-08-31T17:21:11;3;3;2
55549;PMS7003;41397;49.972;18.944;2023-08-31T17:24:12;3;3;3
55549;PMS7003;41397;49.972;18.944;2023-08-31T17:27:13;3;3;3
55549;PMS7003;41397;49.972;18.944;2023-08-31T17:30:17;2;2;2
55549;PMS7003;41397;49.972;18.944;2023-08-31T17:33:18;2;2;2
55549;PMS7003;41397;49.972;18.944;2023-08-31T17:36:22;2;2;2
55549;PMS7003;41397;49.972;18.944;2023-08-31T17:39:23;1;1;1
55549;PMS7003;41397;49.972;18.944;2023-08-31T17:42:25;4;4;3
55549;PMS7003;41397;49.972;18.944;2023-08-31T17:45:26;7;7;3
55549;PMS7003;41397;49.972;18.944;2023-08-31T17:48:27;2;2;2
55549;PMS7003;41397;49.972;18.944;2023-08-31T17:51:29;5;5;4
55549;PMS7003;41397;49.972;18.944;2023-08-31T17:54:32;6;6;5
55549;PMS7003;41397;49.972;18.944;2023-08-31T17:57:33;6;6;4
55549;PMS7003;41397;49.972;18.944;2023-08-31T18:00:34;4;4;3
55549;PMS7003;41397;49.972;18.944;2023-08-31T18:03:35;3;3;3
55549;PMS7003;41397;49.972;18.944;2023-08-31T18:06:40;7;7;7
55549;PMS7003;41397;49.972;18.944;2023-08-31T18:09:42;8;8;8
55549;PMS7003;41397;49.972;18.944;2023-08-31T18:12:46;10;10;8
55549;PMS7003;41397;49.972;18.944;2023-08-31T18:15:49;8;8;6
55549;PMS7003;41397;49.972;18.944;2023-08-31T18:18:51;7;7;6
55549;PMS7003;41397;49.972;18.944;2023-08-31T18:21:53;8;8;7
55549;PMS7003;41397;49.972;18.944;2023-08-31T18:24:54;8;8;8
55549;PMS7003;41397;49.972;18.944;2023-08-31T18:27:55;8;8;8
55549;PMS7003;41397;49.972;18.944;2023-08-31T18:30:58;6;6;5
55549;PMS7003;41397;49.972;18.944;2023-08-31T18:34:03;9;9;7
55549;PMS7003;41397;49.972;18.944;2023-08-31T18:37:04;11;11;9
55549;PMS7003;41397;49.972;18.944;2023-08-31T18:40:06;7;7;6
55549;PMS7003;41397;49.972;18.944;2023-08-31T18:43:12;7;7;7
55549;PMS7003;41397;49.972;18.944;2023-08-31T18:46:13;8;8;6
55549;PMS7003;41397;49.972;18.944;2023-08-31T18:49:14;8;8;7
55549;PMS7003;41397;49.972;18.944;2023-08-31T18:52:16;3;3;3
55549;PMS7003;41397;49.972;18.944;2023-08-31T18:55:18;5;5;5
55549;PMS7003;41397;49.972;18.944;2023-08-31T18:58:22;8;8;5
55549;PMS7003;41397;49.972;18.944;2023-08-31T19:01:24;8;8;5
55549;PMS7003;41397;49.972;18.944;2023-08-31T19:04:25;6;6;5
55549;PMS7003;41397;49.972;18.944;2023-08-31T19:07:26;6;6;5
55549;PMS7003;41397;49.972;18.944;2023-08-31T19:10:27;6;6;6
55549;PMS7003;41397;49.972;18.944;2023-08-31T19:13:30;5;5;5
55549;PMS7003;41397;49.972;18.944;2023-08-31T19:16:31;5;5;4
55549;PMS7003;41397;49.972;18.944;2023-08-31T19:19:35;6;6;5
55549;PMS7003;41397;49.972;18.944;2023-08-31T19:22:37;5;5;5
55549;PMS7003;41397;49.972;18.944;2023-08-31T19:25:39;6;6;6
55549;PMS7003;41397;49.972;18.944;2023-08-31T19:28:40;6;6;5
55549;PMS7003;41397;49.972;18.944;2023-08-31T19:31:41;5;5;4
55549;PMS7003;41397;49.972;18.944;2023-08-31T19:34:43;8;8;6
55549;PMS7003;41397;49.972;18.944;2023-08-31T19:37:44;17;17;11
55549;PMS7003;41397;49.972;18.944;2023-08-31T19:40:50;13;13;10
55549;PMS7003;41397;49.972;18.944;2023-08-31T19:43:52;12;10;9
55549;PMS7003;41397;49.972;18.944;2023-08-31T19:46:53;72;70;43
55549;PMS7003;41397;49.972;18.944;2023-08-31T19:49:54;30;28;20
55549;PMS7003;41397;49.972;18.944;2023-08-31T19:52:55;12;12;9
55549;PMS7003;41397;49.972;18.944;2023-08-31T19:55:57;11;11;7
55549;PMS7003;41397;49.972;18.944;2023-08-31T19:59:01;10;10;8
55549;PMS7003;41397;49.972;18.944;2023-08-31T20:02:03;11;11;9
55549;PMS7003;41397;49.972;18.944;2023-08-31T20:05:04;10;10;9
55549;PMS7003;41397;49.972;18.944;2023-08-31T20:08:06;11;11;9
55549;PMS7003;41397;49.972;18.944;2023-08-31T20:11:08;9;9;7
55549;PMS7003;41397;49.972;18.944;2023-08-31T20:14:09;10;10;7
55549;PMS7003;41397;49.972;18.944;2023-08-31T20:17:10;5;5;5
55549;PMS7003;41397;49.972;18.944;2023-08-31T20:20:11;6;6;6
55549;PMS7003;41397;49.972;18.944;2023-08-31T20:23:13;9;9;7
55549;PMS7003;41397;49.972;18.944;2023-08-31T20:26:15;17;15;12
55549;PMS7003;41397;49.972;18.944;2023-08-31T20:29:17;9;9;7